createdAt,value
2023-04-17T04:02:34.669Z,93.03
2023-04-17T04:05:01.390Z,92.96
2023-04-17T04:07:28.305Z,92.60
2023-04-17T04:09:55.957Z,92.53
2023-04-17T04:12:23.112Z,92.53
2023-04-17T04:14:49.647Z,92.61
2023-04-17T04:17:16.243Z,92.48
2023-04-17T04:19:43.624Z,92.33
2023-04-17T04:22:10.397Z,92.43
2023-04-17T04:24:36.966Z,92.34
2023-04-17T04:27:07.195Z,92.32
2023-04-17T04:29:39.533Z,92.44
2023-04-17T04:32:09.728Z,92.93
2023-04-17T04:34:36.421Z,93.47
2023-04-17T04:37:03.637Z,93.57
2023-04-17T04:39:30.489Z,93.95
2023-04-17T04:42:06.294Z,93.64
2023-04-17T04:44:32.964Z,93.25
2023-04-17T04:47:00.232Z,93.48
2023-04-17T04:49:27.404Z,93.42
2023-04-17T04:51:57.764Z,93.38
2023-04-17T04:54:24.908Z,93.40
2023-04-17T04:56:51.934Z,93.49
2023-04-17T04:59:18.476Z,93.60
2023-04-17T05:01:46.359Z,93.62
2023-04-17T05:04:12.985Z,93.91
2023-04-17T05:06:40.422Z,93.61
2023-04-17T05:09:07.272Z,93.53
2023-04-17T05:11:35.789Z,93.21
2023-04-17T05:14:03.008Z,93.46
2023-04-17T05:16:29.709Z,93.34
2023-04-17T05:18:56.615Z,93.02
2023-04-17T05:21:23.747Z,93.10
2023-04-17T05:23:50.370Z,93.09
2023-04-17T05:26:17.142Z,93.21
2023-04-17T05:28:45.149Z,93.48
2023-04-17T05:31:11.853Z,93.52
2023-04-17T05:33:38.399Z,93.42
2023-04-17T05:36:05.423Z,92.66
2023-04-17T05:38:32.140Z,93.32
2023-04-17T05:40:59.118Z,93.38
2023-04-17T05:43:25.672Z,93.16
2023-04-17T05:45:52.834Z,92.34
2023-04-17T05:48:20.494Z,92.44
2023-04-17T05:50:47.442Z,92.76
2023-04-17T05:53:13.999Z,93.29
2023-04-17T05:55:40.555Z,93.15
2023-04-17T05:58:16.812Z,92.86
2023-04-17T06:00:49.516Z,92.89
2023-04-17T06:03:18.339Z,92.95
2023-04-17T06:05:47.292Z,92.87
2023-04-17T06:08:14.148Z,92.75
2023-04-17T06:10:40.898Z,92.11
2023-04-17T06:13:07.592Z,92.15
2023-04-17T06:15:34.309Z,92.29
2023-04-17T06:18:01.058Z,92.21
2023-04-17T06:20:27.554Z,91.47
2023-04-17T06:22:54.424Z,90.71
2023-04-17T06:25:20.971Z,90.93
2023-04-17T06:27:47.517Z,91.53
2023-04-17T06:30:14.495Z,91.61
2023-04-17T06:32:44.202Z,91.56
2023-04-17T06:35:11.854Z,91.15
2023-04-17T06:37:38.704Z,91.57
2023-04-17T06:40:05.971Z,91.83
2023-04-17T06:42:35.655Z,91.54
2023-04-17T06:45:04.100Z,91.21
2023-04-17T06:47:30.967Z,91.10
2023-04-17T06:49:59.860Z,91.19
2023-04-17T06:52:26.793Z,91.54
2023-04-17T06:54:57.090Z,91.58
2023-04-17T06:57:23.744Z,91.48
2023-04-17T06:59:50.447Z,91.09
2023-04-17T07:02:17.565Z,91.51
2023-04-17T07:04:44.317Z,91.47
2023-04-17T07:07:11.167Z,91.06
2023-04-17T07:09:37.999Z,90.94
2023-04-17T07:12:04.905Z,91.06
2023-04-17T07:14:31.608Z,90.90
2023-04-17T07:16:58.138Z,90.21
2023-04-17T07:19:24.961Z,89.88
2023-04-17T07:21:52.018Z,90.37
2023-04-17T07:24:18.586Z,90.96
2023-04-17T07:26:45.215Z,90.89
2023-04-17T07:29:11.924Z,90.21
2023-04-17T07:31:38.744Z,91.26
2023-04-17T07:34:05.610Z,91.23
2023-04-17T07:36:32.693Z,91.63
2023-04-17T07:38:59.272Z,90.94
2023-04-17T07:41:25.847Z,91.09
2023-04-17T07:43:52.467Z,91.21
2023-04-17T07:46:19.657Z,91.06
2023-04-17T07:48:46.589Z,91.20
2023-04-17T07:51:13.193Z,90.41
2023-04-17T07:53:40.073Z,90.40
2023-04-17T07:56:07.086Z,90.28
2023-04-17T07:58:35.761Z,90.02
2023-04-17T08:01:06.449Z,91.33
2023-04-17T08:03:33.280Z,91.10
2023-04-17T08:06:00.375Z,91.08
2023-04-17T08:08:27.066Z,90.98
2023-04-17T08:10:53.645Z,90.69
2023-04-17T08:13:20.458Z,90.51
2023-04-17T08:15:47.391Z,89.96
2023-04-17T08:18:14.229Z,90.42
2023-04-17T08:20:40.904Z,90.82
2023-04-17T08:23:07.672Z,90.45
2023-04-17T08:25:34.348Z,90.80
2023-04-17T08:28:00.985Z,90.89
2023-04-17T08:30:27.592Z,90.77
2023-04-17T08:32:55.665Z,91.02
2023-04-17T08:35:23.521Z,90.22
2023-04-17T08:37:50.204Z,89.99
2023-04-17T08:40:18.590Z,89.57
2023-04-17T08:42:47.931Z,90.09
2023-04-17T08:45:14.936Z,89.53
2023-04-17T08:47:43.191Z,88.55
2023-04-17T08:50:15.809Z,88.03
2023-04-17T08:52:46.410Z,87.45
2023-04-17T08:55:15.127Z,87.64
2023-04-17T08:58:01.407Z,85.80
2023-04-17T09:00:29.865Z,85.12
2023-04-17T09:02:58.818Z,84.85
2023-04-17T09:05:26.923Z,85.28
2023-04-17T09:08:16.945Z,85.28
2023-04-17T09:10:48.513Z,84.72
2023-04-17T09:13:16.856Z,85.13
2023-04-17T09:15:44.773Z,84.12
2023-04-17T09:18:26.768Z,84.52
2023-04-17T09:20:53.569Z,84.24
2023-04-17T09:23:21.935Z,84.32
2023-04-17T09:26:06.674Z,84.13
2023-04-17T09:28:38.752Z,83.28
2023-04-17T09:31:26.197Z,82.69
2023-04-17T09:34:00.972Z,81.40
2023-04-17T09:36:30.672Z,81.71
2023-04-17T09:39:00.222Z,81.66
2023-04-17T09:41:28.950Z,82.25
2023-04-17T09:44:02.072Z,80.56
2023-04-17T09:46:45.849Z,79.86
2023-04-17T09:49:15.723Z,79.30
2023-04-17T09:51:42.733Z,81.55
2023-04-17T09:54:11.765Z,81.29
2023-04-17T09:56:39.069Z,81.73
2023-04-17T09:59:06.786Z,81.62
2023-04-17T10:01:35.481Z,81.05
2023-04-17T10:04:03.696Z,81.86
2023-04-17T10:06:32.220Z,80.22
2023-04-17T10:08:58.958Z,79.40
2023-04-17T10:11:30.292Z,76.49
2023-04-17T10:14:07.539Z,72.83
2023-04-17T10:16:36.555Z,72.86
2023-04-17T10:19:30.489Z,73.14
2023-04-17T10:22:15.858Z,73.46
2023-04-17T10:24:53.354Z,71.32
2023-04-17T10:27:26.241Z,73.98
2023-04-17T10:29:59.971Z,74.20
2023-04-17T10:32:30.780Z,74.87
2023-04-17T10:35:20.476Z,76.09
2023-04-17T10:37:47.075Z,77.97
2023-04-17T10:40:29.395Z,78.03
2023-04-17T10:43:20.053Z,77.94
2023-04-17T10:46:04.929Z,76.27
2023-04-17T10:48:55.626Z,75.03
2023-04-17T10:51:26.337Z,73.96
2023-04-17T10:54:10.143Z,74.58
2023-04-17T10:56:48.598Z,75.63
2023-04-17T10:59:17.072Z,73.48
2023-04-17T11:01:49.695Z,72.69
2023-04-17T11:04:22.312Z,72.13
2023-04-17T11:06:49.384Z,69.88
2023-04-17T11:09:16.314Z,68.45
2023-04-17T11:11:45.071Z,69.56
2023-04-17T11:14:18.644Z,68.54
2023-04-17T11:16:47.728Z,67.11
2023-04-17T11:19:23.170Z,65.14
2023-04-17T11:21:52.397Z,71.18
2023-04-17T11:24:25.641Z,71.64
2023-04-17T11:26:52.736Z,70.93
2023-04-17T11:29:23.405Z,66.53
2023-04-17T11:31:53.358Z,64.73
2023-04-17T11:34:20.446Z,64.08
2023-04-17T11:36:51.815Z,60.33
2023-04-17T11:39:23.145Z,58.09
2023-04-17T11:41:51.818Z,59.16
2023-04-17T11:44:22.886Z,55.52
2023-04-17T11:46:54.013Z,55.99
2023-04-17T11:49:28.733Z,60.40
2023-04-17T11:51:58.360Z,59.03
2023-04-17T11:54:29.654Z,61.00
2023-04-17T11:57:03.603Z,58.77
2023-04-17T11:59:35.465Z,54.18
2023-04-17T12:02:04.298Z,51.88
2023-04-17T12:04:34.791Z,53.63
2023-04-17T12:07:03.648Z,52.47
2023-04-17T12:09:33.796Z,53.24
2023-04-17T12:12:03.898Z,57.70
2023-04-17T12:14:30.795Z,59.42
2023-04-17T12:16:57.408Z,60.35
2023-04-17T12:19:26.868Z,58.81
2023-04-17T12:21:54.547Z,59.43
2023-04-17T12:24:24.088Z,56.67
2023-04-17T12:26:51.797Z,55.12
2023-04-17T12:29:21.981Z,55.79
2023-04-17T12:31:56.547Z,54.18
2023-04-17T12:34:23.937Z,55.02
2023-04-17T12:36:51.203Z,54.19
2023-04-17T12:39:18.548Z,51.82
2023-04-17T12:41:45.259Z,52.40
2023-04-17T12:44:12.250Z,48.19
2023-04-17T12:46:39.085Z,46.42
2023-04-17T12:49:05.650Z,46.57
2023-04-17T12:51:37.474Z,47.13
2023-04-17T12:54:04.091Z,47.65
2023-04-17T12:56:30.605Z,45.99
2023-04-17T12:58:58.580Z,43.13
2023-04-17T13:01:27.417Z,43.90
2023-04-17T13:03:54.739Z,49.74
2023-04-17T13:06:21.909Z,53.24
2023-04-17T13:08:48.569Z,54.28
2023-04-17T13:11:15.125Z,48.41
2023-04-17T13:13:41.706Z,46.04
2023-04-17T13:16:10.312Z,43.05
2023-04-17T13:18:37.577Z,50.42
2023-04-17T13:21:04.197Z,53.19
2023-04-17T13:23:30.847Z,54.83
2023-04-17T13:25:57.506Z,56.65
2023-04-17T13:28:24.078Z,54.96
2023-04-17T13:30:51.494Z,58.03
2023-04-17T13:33:18.022Z,54.41
2023-04-17T13:35:44.619Z,50.05
2023-04-17T13:38:11.241Z,46.64
2023-04-17T13:40:38.586Z,43.70
2023-04-17T13:43:06.694Z,48.98
2023-04-17T13:45:33.495Z,49.32
2023-04-17T13:48:00.319Z,51.72
2023-04-17T13:50:27.164Z,51.28
2023-04-17T13:52:53.822Z,50.97
2023-04-17T13:55:20.450Z,53.40
2023-04-17T13:57:47.040Z,52.25
2023-04-17T14:00:14.413Z,48.33
2023-04-17T14:02:41.222Z,46.18
2023-04-17T14:05:08.494Z,46.39
2023-04-17T14:07:35.284Z,45.91
2023-04-17T14:10:01.930Z,47.08
2023-04-17T14:12:28.551Z,50.90
2023-04-17T14:14:57.027Z,53.34
2023-04-17T14:17:24.872Z,53.83
2023-04-17T14:19:52.490Z,54.98
2023-04-17T14:22:19.130Z,56.30
2023-04-17T14:24:45.902Z,56.57
2023-04-17T14:27:12.470Z,54.79
2023-04-17T14:29:39.114Z,53.20
2023-04-17T14:32:06.206Z,55.02
2023-04-17T14:34:32.878Z,56.99
2023-04-17T14:36:59.445Z,52.34
2023-04-17T14:39:25.993Z,55.23
2023-04-17T14:41:52.866Z,51.01
2023-04-17T14:44:20.738Z,49.87
2023-04-17T14:46:47.853Z,50.10
2023-04-17T14:49:14.631Z,51.53
2023-04-17T14:51:41.291Z,51.70
2023-04-17T14:54:08.607Z,50.08
2023-04-17T14:56:35.373Z,46.90
2023-04-17T14:59:02.175Z,43.95
2023-04-17T15:01:28.823Z,49.74
2023-04-17T15:03:55.782Z,53.15
2023-04-17T15:06:22.567Z,53.14
2023-04-17T15:08:49.112Z,53.16
2023-04-17T15:11:15.970Z,50.74
2023-04-17T15:13:42.583Z,49.01
2023-04-17T15:16:09.959Z,48.22
2023-04-17T15:18:39.197Z,47.74
2023-04-17T15:21:06.497Z,48.03
2023-04-17T15:23:34.605Z,47.18
2023-04-17T15:26:01.523Z,47.15
2023-04-17T15:28:28.536Z,48.92
2023-04-17T15:30:55.946Z,48.95
2023-04-17T15:33:22.477Z,48.79
2023-04-17T15:35:58.641Z,49.33
2023-04-17T15:38:26.209Z,49.94
2023-04-17T15:40:53.291Z,49.51
2023-04-17T15:43:20.703Z,49.83
2023-04-17T15:45:52.015Z,49.98
2023-04-17T15:48:18.757Z,50.00
2023-04-17T15:50:45.368Z,49.88
2023-04-17T15:53:13.167Z,50.98
2023-04-17T15:55:41.169Z,49.98
2023-04-17T15:58:08.487Z,54.20
2023-04-17T16:00:35.085Z,59.17
2023-04-17T16:03:01.926Z,62.46
2023-04-17T16:05:30.042Z,64.13
2023-04-17T16:07:56.730Z,66.27
2023-04-17T16:10:23.379Z,66.78
2023-04-17T16:12:50.170Z,66.68
2023-04-17T16:15:17.764Z,66.13
2023-04-17T16:17:45.571Z,66.43
2023-04-17T16:20:13.010Z,66.60
2023-04-17T16:22:39.665Z,64.63
2023-04-17T16:25:06.756Z,63.10
2023-04-17T16:27:34.207Z,64.33
2023-04-17T16:30:00.854Z,64.68
2023-04-17T16:32:27.588Z,65.38
2023-04-17T16:34:54.592Z,66.11
2023-04-17T16:37:21.273Z,66.60
2023-04-17T16:39:48.428Z,67.43
2023-04-17T16:42:15.515Z,67.65
2023-04-17T16:44:42.129Z,67.70
2023-04-17T16:49:38.137Z,67.83
2023-04-17T16:52:04.887Z,67.78
2023-04-17T16:54:31.648Z,67.63
2023-04-17T16:56:58.592Z,67.86
2023-04-17T16:59:25.149Z,69.45
2023-04-17T17:01:52.986Z,71.00
2023-04-17T17:04:19.718Z,71.43
2023-04-17T17:06:46.341Z,70.13
2023-04-17T17:09:14.156Z,66.68
2023-04-17T17:11:41.038Z,66.91
2023-04-17T17:14:07.808Z,68.41
2023-04-17T17:16:35.124Z,71.20
2023-04-17T17:19:01.964Z,72.88
2023-04-17T17:21:28.905Z,73.02
2023-04-17T17:23:55.826Z,73.34
2023-04-17T17:26:22.434Z,74.11
2023-04-17T17:28:51.519Z,73.65
2023-04-17T17:31:18.463Z,74.09
2023-04-17T17:33:50.231Z,74.08
2023-04-17T17:36:17.241Z,73.96
2023-04-17T17:38:44.463Z,74.86
2023-04-17T17:41:11.553Z,75.27
2023-04-17T17:43:38.124Z,74.84
2023-04-17T17:46:04.802Z,75.01
2023-04-17T17:48:31.750Z,74.85
2023-04-17T17:50:58.252Z,74.44
2023-04-17T17:53:26.940Z,74.92
2023-04-17T17:55:55.299Z,75.05
2023-04-17T17:58:22.336Z,74.41
2023-04-17T18:00:49.965Z,74.89
2023-04-17T18:03:17.045Z,75.28
2023-04-17T18:05:44.590Z,75.98
2023-04-17T18:08:11.269Z,76.12
2023-04-17T18:10:38.011Z,76.73
2023-04-17T18:13:04.899Z,76.85
2023-04-17T18:15:31.877Z,77.12
2023-04-17T18:17:58.481Z,77.45
2023-04-17T18:20:25.192Z,77.65
2023-04-17T18:22:52.049Z,77.93
2023-04-17T18:25:18.910Z,78.23
2023-04-17T18:27:45.512Z,78.33
2023-04-17T18:30:12.589Z,78.26
2023-04-17T18:32:39.184Z,78.67
2023-04-17T18:35:06.702Z,79.39
2023-04-17T18:37:33.249Z,79.91
2023-04-17T18:39:59.910Z,80.10
2023-04-17T18:42:26.495Z,80.68
2023-04-17T18:44:53.051Z,80.99
2023-04-17T18:47:20.474Z,81.34
2023-04-17T18:49:47.081Z,81.18
2023-04-17T18:52:13.712Z,81.61
2023-04-17T18:54:40.312Z,82.13
2023-04-17T18:57:06.822Z,82.54
2023-04-17T18:59:33.352Z,81.77
2023-04-17T19:01:59.959Z,82.02
2023-04-17T19:04:27.518Z,82.29
2023-04-17T19:06:54.110Z,83.00
2023-04-17T19:09:20.720Z,82.85
2023-04-17T19:11:47.305Z,83.09
2023-04-17T19:14:14.039Z,83.80
2023-04-17T19:16:40.809Z,84.08
2023-04-17T19:19:08.427Z,84.65
2023-04-17T19:21:35.006Z,84.60
2023-04-17T19:24:01.530Z,85.27
2023-04-17T19:26:28.112Z,85.76
2023-04-17T19:28:55.447Z,85.95
2023-04-17T19:31:22.305Z,86.64
2023-04-17T19:33:48.875Z,86.98
2023-04-17T19:36:15.456Z,86.89
2023-04-17T19:38:42.419Z,86.70
2023-04-17T19:41:19.169Z,87.43
2023-04-17T19:43:46.707Z,87.76
2023-04-17T19:46:14.165Z,88.04
2023-04-17T19:48:43.541Z,87.95
2023-04-17T19:51:11.743Z,88.22
2023-04-17T19:53:40.819Z,88.31
2023-04-17T19:56:08.809Z,89.06
2023-04-17T19:58:36.335Z,89.29
2023-04-17T20:01:03.446Z,89.20
2023-04-17T20:03:31.093Z,89.19
2023-04-17T20:05:58.838Z,89.14
2023-04-17T20:08:25.847Z,89.42
2023-04-17T20:10:54.894Z,88.99
2023-04-17T20:13:23.869Z,89.32
2023-04-17T20:15:50.369Z,89.02
2023-04-17T20:18:17.829Z,88.90
2023-04-17T20:20:44.426Z,89.15
2023-04-17T20:23:11.490Z,89.33
2023-04-17T20:25:38.126Z,89.21
2023-04-17T20:28:05.122Z,88.87
2023-04-17T20:30:31.697Z,88.88
2023-04-17T20:32:58.509Z,89.28
2023-04-17T20:35:25.384Z,89.12
2023-04-17T20:37:52.483Z,89.39
2023-04-17T20:40:19.786Z,89.05
2023-04-17T20:42:47.467Z,88.91
2023-04-17T20:45:14.341Z,89.39
2023-04-17T20:47:56.046Z,89.43
2023-04-17T20:50:23.506Z,89.72
2023-04-17T20:52:50.237Z,89.19
2023-04-17T20:55:18.830Z,89.58
2023-04-17T20:57:46.045Z,89.83
2023-04-17T21:00:13.288Z,89.68
2023-04-17T21:02:50.655Z,89.99
2023-04-17T21:05:24.023Z,89.94
2023-04-17T21:07:51.659Z,90.14
